Delta Pioneer — SYIO — position and weather

sailwx.info

Track history (hours):
 
Tides and Currents Weather Stations Pressure Air Temp Water Temp Dewpoint Dewpoint Depression Visibility Wind Speed Wind Dir Waves Ship Positions

Delta Pioneer

Last reported at 2016-Jul-29 09:31 UTC. Time now 2016-Jul-29 10:12 UTC.
Position N 58°21' E 011°24'.

Length 249 m; draft 13.9 m.

Type: Tanker. MMSI: 240244000.

Date/timePositionNaut miles runAvg speedWind from/ knotsBaromVisibWave heightAir tempDewpointWater temp
2016-Jul-29 09:31N 58°21' E 011°24'0 0.0
2016-Jul-29 08:31N 58°21' E 011°24'1 0.7
2016-Jul-29 07:33N 58°20' E 011°24'6 6.2
2016-Jul-29 06:33N 58°16' E 011°15'8 7.9
2016-Jul-29 05:33N 58°09' E 011°09'1312.7
2016-Jul-29 04:33N 57°56' E 011°09'1212.1
2016-Jul-29 03:33N 57°45' E 011°15'1211.6
2016-Jul-29 02:33N 57°34' E 011°22'1211.8
2016-Jul-29 01:33N 57°23' E 011°30'1211.7
2016-Jul-29 00:33N 57°12' E 011°37'1211.7
2016-Jul-28 23:33N 57°00' E 011°44'1211.8
2016-Jul-28 22:33N 56°50' E 011°53'1111.0
2016-Jul-28 21:33N 56°39' E 011°48'3210.5
2016-Jul-28 18:30N 56°17' E 011°06'6010.1
2016-Jul-28 12:33N 55°17' E 011°04'9 8.8
2016-Jul-28 11:33N 55°09' E 010°59'1111.2
2016-Jul-28 10:33N 54°58' E 010°57'1110.6
2016-Jul-28 09:33N 54°48' E 010°50'10 9.6
2016-Jul-28 08:33N 54°38' E 010°54'1111.4
2016-Jul-28 07:33N 54°35' E 011°13'1212.2
2016-Jul-28 06:33N 54°30' E 011°32'1211.7
2016-Jul-28 05:33N 54°27' E 011°51'1111.4
2016-Jul-28 04:33N 54°27' E 012°11'10 9.9
2016-Jul-28 03:33N 54°36' E 012°17'6 6.3
2016-Jul-28 02:33N 54°40' E 012°25'37 9.1
2016-Jul-27 22:33N 54°55' E 013°23'1211.7
2016-Jul-27 21:33N 54°60' E 013°42'1211.9
2016-Jul-27 20:33N 55°04' E 014°01'1111.2
2016-Jul-27 19:33N 55°12' E 014°15'1211.6
2016-Jul-27 18:34N 55°21' E 014°27'1111.4
2016-Jul-27 17:33N 55°29' E 014°42'1211.8
2016-Jul-27 16:34N 55°34' E 015°00'1211.8
2016-Jul-27 15:33N 55°39' E 015°20'7211.8
2016-Jul-27 09:30N 55°56' E 017°23'6211.4
2016-Jul-27 04:04N 56°31' E 018°55'611.7
2016-Jul-27 03:33N 56°37' E 018°60'1211.7
2016-Jul-27 02:33N 56°47' E 019°09'17511.5
2016-Jul-26 11:20N 59°18' E 021°58'1011.5
2016-Jul-26 10:26N 59°24' E 022°15'1111.7
2016-Jul-26 09:32N 59°29' E 022°32'1411.7
2016-Jul-26 08:22N 59°34' E 022°58'1012.0
2016-Jul-26 07:33N 59°37' E 023°16'1212.4
2016-Jul-26 06:33N 59°40' E 023°39'1312.6
2016-Jul-26 05:33N 59°44' E 024°04'1312.4
2016-Jul-26 04:31N 59°47' E 024°29'1212.3
2016-Jul-26 03:33N 59°50' E 024°51'1512.1
2016-Jul-26 02:20N 59°53' E 025°20'1012.4
2016-Jul-26 01:33N 59°54' E 025°39'1212.5
2016-Jul-26 00:33N 59°57' E 026°03'1212.3
2016-Jul-25 23:33N 60°00' E 026°27'1211.9
2016-Jul-25 22:34N 60°00' E 026°51'1211.8
2016-Jul-25 21:33N 60°03' E 027°14'1312.7
2016-Jul-25 20:33N 60°09' E 027°36'1311.4
2016-Jul-25 19:23N 60°10' E 028°03'1012.0
2016-Jul-25 18:34N 60°06' E 028°21'1010.3
2016-Jul-25 17:33N 59°59' E 028°36'1010.0
2016-Jul-25 16:33N 59°50' E 028°26'8 7.3
2016-Jul-25 15:31N 59°42' E 028°25'0 0.1
2016-Jul-25 14:31N 59°42' E 028°26'0 0.0
2016-Jul-25 13:31N 59°42' E 028°26'0 0.0
2016-Jul-25 12:31N 59°42' E 028°26'0 0.0
2016-Jul-25 11:19N 59°42' E 028°26'0 0.0
2016-Jul-25 10:25N 59°42' E 028°26'0 0.0
2016-Jul-25 09:22N 59°42' E 028°26'0 0.0
2016-Jul-25 08:25N 59°42' E 028°26'0 0.0
2016-Jul-25 07:28N 59°42' E 028°26'0 0.0
2016-Jul-25 06:28N 59°42' E 028°26'0 0.0
2016-Jul-25 05:28N 59°42' E 028°26'0 0.0
2016-Jul-25 04:31N 59°42' E 028°26'0 0.0
2016-Jul-25 03:31N 59°42' E 028°26'0 0.0
2016-Jul-25 02:31N 59°42' E 028°26'0 0.0
2016-Jul-25 01:31N 59°42' E 028°26'0 0.0
2016-Jul-25 00:31N 59°42' E 028°26'0 0.0
2016-Jul-24 23:31N 59°42' E 028°26'0 0.0
2016-Jul-24 22:31N 59°42' E 028°26'0 0.0
2016-Jul-24 21:22N 59°42' E 028°26'0 0.0
2016-Jul-24 20:25N 59°42' E 028°26'0 0.0
2016-Jul-24 19:22N 59°42' E 028°26'0 0.0
2016-Jul-24 18:25N 59°42' E 028°26'0 0.0
2016-Jul-24 17:28N 59°42' E 028°26'0 0.0
2016-Jul-24 16:28N 59°42' E 028°26'0 0.0
2016-Jul-24 15:28N 59°42' E 028°26'0 0.0
2016-Jul-24 14:31N 59°42' E 028°26'0 0.0
2016-Jul-24 13:31N 59°42' E 028°26'0 0.0
2016-Jul-24 12:31N 59°42' E 028°26'0 0.0
2016-Jul-24 11:31N 59°42' E 028°26'0 0.0
2016-Jul-24 10:31N 59°42' E 028°26'1 0.6
2016-Jul-24 09:33N 59°42' E 028°25'5 4.7
2016-Jul-24 08:33N 59°46' E 028°24'0 0.3
2016-Jul-24 07:33N 59°46' E 028°25'0 0.1
2016-Jul-24 06:33N 59°46' E 028°25'0 0.1
2016-Jul-24 05:33N 59°46' E 028°25'0 0.0
2016-Jul-24 04:33N 59°46' E 028°25'0 0.0
2016-Jul-24 03:24N 59°46' E 028°25'0 0.0
2016-Jul-24 02:33N 59°46' E 028°25'0 0.0
2016-Jul-24 01:24N 59°46' E 028°25'0 0.0
2016-Jul-24 00:27N 59°46' E 028°25'0 0.0
2016-Jul-23 23:27N 59°46' E 028°25'0 0.0
2016-Jul-23 22:30N 59°46' E 028°25'0 0.0
2016-Jul-23 21:30N 59°46' E 028°25'0 0.0
2016-Jul-23 20:30N 59°46' E 028°25'0 0.0
2016-Jul-23 19:33N 59°46' E 028°25'0 0.0
2016-Jul-23 18:33N 59°46' E 028°25'0 0.0
2016-Jul-23 17:33N 59°46' E 028°25'0 0.0
2016-Jul-23 16:33N 59°46' E 028°25'0 0.0
2016-Jul-23 15:33N 59°46' E 028°25'0 0.0
2016-Jul-23 14:33N 59°46' E 028°25'0 0.0
2016-Jul-23 13:33N 59°46' E 028°25'0 0.0
2016-Jul-23 12:21N 59°46' E 028°25'0 0.0
2016-Jul-23 11:24N 59°46' E 028°25'0 0.0
2016-Jul-23 10:27N 59°46' E 028°25'0 0.0
2016-Jul-23 09:27N 59°46' E 028°25'0 0.0
2016-Jul-23 08:27N 59°46' E 028°25'0 0.0
2016-Jul-23 07:30N 59°46' E 028°25'0 0.0
2016-Jul-23 06:30N 59°46' E 028°25'8 4.2
2016-Jul-23 04:33N 59°54' E 028°31'4 3.3
2016-Jul-23 03:26N 59°54' E 028°38'0 0.0
2016-Jul-23 02:26N 59°54' E 028°38'0 0.0
2016-Jul-23 01:26N 59°54' E 028°38'0 0.0
2016-Jul-23 00:29N 59°54' E 028°38'0 0.0
2016-Jul-22 23:26N 59°54' E 028°38'0 0.0
2016-Jul-22 22:29N 59°54' E 028°38'0 0.0
2016-Jul-22 21:17N 59°54' E 028°38'0 0.0
2016-Jul-22 20:32N 59°54' E 028°38'0 0.0
2016-Jul-22 19:32N 59°54' E 028°38'0 0.0
2016-Jul-22 18:29N 59°54' E 028°38'0 0.0
2016-Jul-22 17:32N 59°54' E 028°38'0 0.1
2016-Jul-22 16:32N 59°54' E 028°38'3 3.2
2016-Jul-22 15:33N 59°56' E 028°34'8 8.1
2016-Jul-22 14:33N 60°03' E 028°25'1010.4
2016-Jul-22 13:33N 60°08' E 028°07'1110.7
2016-Jul-22 12:33N 60°10' E 027°46'1110.6
2016-Jul-22 11:33N 60°05' E 027°27'1110.6
2016-Jul-22 10:32N 59°59' E 027°09'1110.2
2016-Jul-22 09:26N 59°59' E 026°46'910.4
2016-Jul-22 08:33N 59°58' E 026°28'4410.7
2016-Jul-22 04:26N 59°48' E 025°03'1011.0
2016-Jul-22 03:33N 59°45' E 024°44'1110.9
2016-Jul-22 02:33N 59°43' E 024°23'1511.1
2016-Jul-22 01:12N 59°39' E 023°55'811.1
2016-Jul-22 00:28N 59°36' E 023°39'1011.0
2016-Jul-21 23:33N 59°33' E 023°21'1310.9
2016-Jul-21 22:21N 59°29' E 022°56'17310.3
2016-Jul-21 05:33N 57°10' E 019°39'1410.4
2016-Jul-21 04:15N 56°58' E 019°28'710.2
2016-Jul-21 03:33N 56°52' E 019°21'1010.3
2016-Jul-21 02:33N 56°43' E 019°13'3110.0
2016-Jul-20 23:27N 56°16' E 018°44'910.2
2016-Jul-20 22:33N 56°11' E 018°30'1010.3
2016-Jul-20 21:33N 56°06' E 018°14'1010.2
2016-Jul-20 20:33N 56°01' E 017°58'1010.3
2016-Jul-20 19:33N 55°55' E 017°43'1010.3
2016-Jul-20 18:33N 55°53' E 017°25'1010.2
2016-Jul-20 17:33N 55°50' E 017°07'1010.4
2016-Jul-20 16:33N 55°47' E 016°50'2410.2
2016-Jul-20 14:10N 55°42' E 016°07'610.0
2016-Jul-20 13:33N 55°40' E 015°57'1010.3
2016-Jul-20 12:33N 55°38' E 015°39'1010.2
2016-Jul-20 11:33N 55°34' E 015°22'1010.2
2016-Jul-20 10:33N 55°30' E 015°05'1010.3
2016-Jul-20 09:34N 55°26' E 014°49'1010.0
2016-Jul-20 08:33N 55°20' E 014°35'1010.3
2016-Jul-20 07:34N 55°12' E 014°23'10 9.7
2016-Jul-20 06:34N 55°10' E 014°07'1010.1
2016-Jul-20 05:33N 55°11' E 013°49'1010.2
2016-Jul-20 04:33N 55°12' E 013°31'1110.8
2016-Jul-20 03:34N 55°13' E 013°12'1010.5
2016-Jul-20 02:33N 55°14' E 012°54'1010.1
2016-Jul-20 01:33N 55°18' E 012°38'1010.1
2016-Jul-20 00:33N 55°28' E 012°41'8 7.8
2016-Jul-19 23:33N 55°34' E 012°50'7 7.4
2016-Jul-19 22:34N 55°41' E 012°55'1312.7
2016-Jul-19 21:33N 55°52' E 012°44'1212.3
2016-Jul-19 20:33N 56°04' E 012°37'9 9.2
2016-Jul-19 19:33N 56°10' E 012°24'10 9.5
2016-Jul-19 18:33N 56°15' E 012°10'2210.5
2016-Jul-19 16:31N 56°35' E 011°56'1010.8
2016-Jul-19 15:33N 56°45' E 011°52'1110.8
2016-Jul-19 14:33N 56°56' E 011°46'1110.8
2016-Jul-19 13:32N 57°06' E 011°39'1010.4
2016-Jul-19 12:33N 57°16' E 011°33'1110.6
2016-Jul-19 11:33N 57°25' E 011°26'1010.4
2016-Jul-19 10:33N 57°35' E 011°19'1110.4
2016-Jul-19 09:33N 57°45' E 011°13'  
Track history (hours):
 
Tides and Currents Weather Stations Pressure Air Temp Water Temp Dewpoint Dewpoint Depression Visibility Wind Speed Wind Dir Waves Ship Positions

Delta Pioneer

Last reported at 2016-Jul-29 09:31 UTC. Time now 2016-Jul-29 10:12 UTC.
Position N 58°21' E 011°24'.

Length 249 m; draft 13.9 m.

Type: Tanker. MMSI: 240244000.

Date/timePositionNaut miles runAvg speedWind from/ knotsBaromVisibWave heightAir tempDewpointWater temp
2016-Jul-29 09:31N 58°21' E 011°24'0 0.0
2016-Jul-29 08:31N 58°21' E 011°24'1 0.7
2016-Jul-29 07:33N 58°20' E 011°24'6 6.2
2016-Jul-29 06:33N 58°16' E 011°15'8 7.9
2016-Jul-29 05:33N 58°09' E 011°09'1312.7
2016-Jul-29 04:33N 57°56' E 011°09'1212.1
2016-Jul-29 03:33N 57°45' E 011°15'1211.6
2016-Jul-29 02:33N 57°34' E 011°22'1211.8
2016-Jul-29 01:33N 57°23' E 011°30'1211.7
2016-Jul-29 00:33N 57°12' E 011°37'1211.7
2016-Jul-28 23:33N 57°00' E 011°44'1211.8
2016-Jul-28 22:33N 56°50' E 011°53'1111.0
2016-Jul-28 21:33N 56°39' E 011°48'3210.5
2016-Jul-28 18:30N 56°17' E 011°06'6010.1
2016-Jul-28 12:33N 55°17' E 011°04'9 8.8
2016-Jul-28 11:33N 55°09' E 010°59'1111.2
2016-Jul-28 10:33N 54°58' E 010°57'1110.6
2016-Jul-28 09:33N 54°48' E 010°50'10 9.6
2016-Jul-28 08:33N 54°38' E 010°54'1111.4
2016-Jul-28 07:33N 54°35' E 011°13'1212.2
2016-Jul-28 06:33N 54°30' E 011°32'1211.7
2016-Jul-28 05:33N 54°27' E 011°51'1111.4
2016-Jul-28 04:33N 54°27' E 012°11'10 9.9
2016-Jul-28 03:33N 54°36' E 012°17'6 6.3
2016-Jul-28 02:33N 54°40' E 012°25'37 9.1
2016-Jul-27 22:33N 54°55' E 013°23'1211.7
2016-Jul-27 21:33N 54°60' E 013°42'1211.9
2016-Jul-27 20:33N 55°04' E 014°01'1111.2
2016-Jul-27 19:33N 55°12' E 014°15'1211.6
2016-Jul-27 18:34N 55°21' E 014°27'1111.4
2016-Jul-27 17:33N 55°29' E 014°42'1211.8
2016-Jul-27 16:34N 55°34' E 015°00'1211.8
2016-Jul-27 15:33N 55°39' E 015°20'7211.8
2016-Jul-27 09:30N 55°56' E 017°23'6211.4
2016-Jul-27 04:04N 56°31' E 018°55'611.7
2016-Jul-27 03:33N 56°37' E 018°60'1211.7
2016-Jul-27 02:33N 56°47' E 019°09'17511.5
2016-Jul-26 11:20N 59°18' E 021°58'1011.5
2016-Jul-26 10:26N 59°24' E 022°15'1111.7
2016-Jul-26 09:32N 59°29' E 022°32'1411.7
2016-Jul-26 08:22N 59°34' E 022°58'1012.0
2016-Jul-26 07:33N 59°37' E 023°16'1212.4
2016-Jul-26 06:33N 59°40' E 023°39'1312.6
2016-Jul-26 05:33N 59°44' E 024°04'1312.4
2016-Jul-26 04:31N 59°47' E 024°29'1212.3
2016-Jul-26 03:33N 59°50' E 024°51'1512.1
2016-Jul-26 02:20N 59°53' E 025°20'1012.4
2016-Jul-26 01:33N 59°54' E 025°39'1212.5
2016-Jul-26 00:33N 59°57' E 026°03'1212.3
2016-Jul-25 23:33N 60°00' E 026°27'1211.9
2016-Jul-25 22:34N 60°00' E 026°51'1211.8
2016-Jul-25 21:33N 60°03' E 027°14'1312.7
2016-Jul-25 20:33N 60°09' E 027°36'1311.4
2016-Jul-25 19:23N 60°10' E 028°03'1012.0
2016-Jul-25 18:34N 60°06' E 028°21'1010.3
2016-Jul-25 17:33N 59°59' E 028°36'1010.0
2016-Jul-25 16:33N 59°50' E 028°26'8 7.3
2016-Jul-25 15:31N 59°42' E 028°25'0 0.1
2016-Jul-25 14:31N 59°42' E 028°26'0 0.0
2016-Jul-25 13:31N 59°42' E 028°26'0 0.0
2016-Jul-25 12:31N 59°42' E 028°26'0 0.0
2016-Jul-25 11:19N 59°42' E 028°26'0 0.0
2016-Jul-25 10:25N 59°42' E 028°26'0 0.0
2016-Jul-25 09:22N 59°42' E 028°26'0 0.0
2016-Jul-25 08:25N 59°42' E 028°26'0 0.0
2016-Jul-25 07:28N 59°42' E 028°26'0 0.0
2016-Jul-25 06:28N 59°42' E 028°26'0 0.0
2016-Jul-25 05:28N 59°42' E 028°26'0 0.0
2016-Jul-25 04:31N 59°42' E 028°26'0 0.0
2016-Jul-25 03:31N 59°42' E 028°26'0 0.0
2016-Jul-25 02:31N 59°42' E 028°26'0 0.0
2016-Jul-25 01:31N 59°42' E 028°26'0 0.0
2016-Jul-25 00:31N 59°42' E 028°26'0 0.0
2016-Jul-24 23:31N 59°42' E 028°26'0 0.0
2016-Jul-24 22:31N 59°42' E 028°26'0 0.0
2016-Jul-24 21:22N 59°42' E 028°26'0 0.0
2016-Jul-24 20:25N 59°42' E 028°26'0 0.0
2016-Jul-24 19:22N 59°42' E 028°26'0 0.0
2016-Jul-24 18:25N 59°42' E 028°26'0 0.0
2016-Jul-24 17:28N 59°42' E 028°26'0 0.0
2016-Jul-24 16:28N 59°42' E 028°26'0 0.0
2016-Jul-24 15:28N 59°42' E 028°26'0 0.0
2016-Jul-24 14:31N 59°42' E 028°26'0 0.0
2016-Jul-24 13:31N 59°42' E 028°26'0 0.0
2016-Jul-24 12:31N 59°42' E 028°26'0 0.0
2016-Jul-24 11:31N 59°42' E 028°26'0 0.0
2016-Jul-24 10:31N 59°42' E 028°26'1 0.6
2016-Jul-24 09:33N 59°42' E 028°25'5 4.7
2016-Jul-24 08:33N 59°46' E 028°24'0 0.3
2016-Jul-24 07:33N 59°46' E 028°25'0 0.1
2016-Jul-24 06:33N 59°46' E 028°25'0 0.1
2016-Jul-24 05:33N 59°46' E 028°25'0 0.0
2016-Jul-24 04:33N 59°46' E 028°25'0 0.0
2016-Jul-24 03:24N 59°46' E 028°25'0 0.0
2016-Jul-24 02:33N 59°46' E 028°25'0 0.0
2016-Jul-24 01:24N 59°46' E 028°25'0 0.0
2016-Jul-24 00:27N 59°46' E 028°25'0 0.0
2016-Jul-23 23:27N 59°46' E 028°25'0 0.0
2016-Jul-23 22:30N 59°46' E 028°25'0 0.0
2016-Jul-23 21:30N 59°46' E 028°25'0 0.0
2016-Jul-23 20:30N 59°46' E 028°25'0 0.0
2016-Jul-23 19:33N 59°46' E 028°25'0 0.0
2016-Jul-23 18:33N 59°46' E 028°25'0 0.0
2016-Jul-23 17:33N 59°46' E 028°25'0 0.0
2016-Jul-23 16:33N 59°46' E 028°25'0 0.0
2016-Jul-23 15:33N 59°46' E 028°25'0 0.0
2016-Jul-23 14:33N 59°46' E 028°25'0 0.0
2016-Jul-23 13:33N 59°46' E 028°25'0 0.0
2016-Jul-23 12:21N 59°46' E 028°25'0 0.0
2016-Jul-23 11:24N 59°46' E 028°25'0 0.0
2016-Jul-23 10:27N 59°46' E 028°25'0 0.0
2016-Jul-23 09:27N 59°46' E 028°25'0 0.0
2016-Jul-23 08:27N 59°46' E 028°25'0 0.0
2016-Jul-23 07:30N 59°46' E 028°25'0 0.0
2016-Jul-23 06:30N 59°46' E 028°25'8 4.2
2016-Jul-23 04:33N 59°54' E 028°31'4 3.3
2016-Jul-23 03:26N 59°54' E 028°38'0 0.0
2016-Jul-23 02:26N 59°54' E 028°38'0 0.0
2016-Jul-23 01:26N 59°54' E 028°38'0 0.0
2016-Jul-23 00:29N 59°54' E 028°38'0 0.0
2016-Jul-22 23:26N 59°54' E 028°38'0 0.0
2016-Jul-22 22:29N 59°54' E 028°38'0 0.0
2016-Jul-22 21:17N 59°54' E 028°38'0 0.0
2016-Jul-22 20:32N 59°54' E 028°38'0 0.0
2016-Jul-22 19:32N 59°54' E 028°38'0 0.0
2016-Jul-22 18:29N 59°54' E 028°38'0 0.0
2016-Jul-22 17:32N 59°54' E 028°38'0 0.1
2016-Jul-22 16:32N 59°54' E 028°38'3 3.2
2016-Jul-22 15:33N 59°56' E 028°34'8 8.1
2016-Jul-22 14:33N 60°03' E 028°25'1010.4
2016-Jul-22 13:33N 60°08' E 028°07'1110.7
2016-Jul-22 12:33N 60°10' E 027°46'1110.6
2016-Jul-22 11:33N 60°05' E 027°27'1110.6
2016-Jul-22 10:32N 59°59' E 027°09'1110.2
2016-Jul-22 09:26N 59°59' E 026°46'910.4
2016-Jul-22 08:33N 59°58' E 026°28'4410.7
2016-Jul-22 04:26N 59°48' E 025°03'1011.0
2016-Jul-22 03:33N 59°45' E 024°44'1110.9
2016-Jul-22 02:33N 59°43' E 024°23'1511.1
2016-Jul-22 01:12N 59°39' E 023°55'811.1
2016-Jul-22 00:28N 59°36' E 023°39'1011.0
2016-Jul-21 23:33N 59°33' E 023°21'1310.9
2016-Jul-21 22:21N 59°29' E 022°56'17310.3
2016-Jul-21 05:33N 57°10' E 019°39'1410.4
2016-Jul-21 04:15N 56°58' E 019°28'710.2
2016-Jul-21 03:33N 56°52' E 019°21'1010.3
2016-Jul-21 02:33N 56°43' E 019°13'3110.0
2016-Jul-20 23:27N 56°16' E 018°44'910.2
2016-Jul-20 22:33N 56°11' E 018°30'1010.3
2016-Jul-20 21:33N 56°06' E 018°14'1010.2
2016-Jul-20 20:33N 56°01' E 017°58'1010.3
2016-Jul-20 19:33N 55°55' E 017°43'1010.3
2016-Jul-20 18:33N 55°53' E 017°25'1010.2
2016-Jul-20 17:33N 55°50' E 017°07'1010.4
2016-Jul-20 16:33N 55°47' E 016°50'2410.2
2016-Jul-20 14:10N 55°42' E 016°07'610.0
2016-Jul-20 13:33N 55°40' E 015°57'1010.3
2016-Jul-20 12:33N 55°38' E 015°39'1010.2
2016-Jul-20 11:33N 55°34' E 015°22'1010.2
2016-Jul-20 10:33N 55°30' E 015°05'1010.3
2016-Jul-20 09:34N 55°26' E 014°49'1010.0
2016-Jul-20 08:33N 55°20' E 014°35'1010.3
2016-Jul-20 07:34N 55°12' E 014°23'10 9.7
2016-Jul-20 06:34N 55°10' E 014°07'1010.1
2016-Jul-20 05:33N 55°11' E 013°49'1010.2
2016-Jul-20 04:33N 55°12' E 013°31'1110.8
2016-Jul-20 03:34N 55°13' E 013°12'1010.5
2016-Jul-20 02:33N 55°14' E 012°54'1010.1
2016-Jul-20 01:33N 55°18' E 012°38'1010.1
2016-Jul-20 00:33N 55°28' E 012°41'8 7.8
2016-Jul-19 23:33N 55°34' E 012°50'7 7.4
2016-Jul-19 22:34N 55°41' E 012°55'1312.7
2016-Jul-19 21:33N 55°52' E 012°44'1212.3
2016-Jul-19 20:33N 56°04' E 012°37'9 9.2
2016-Jul-19 19:33N 56°10' E 012°24'10 9.5
2016-Jul-19 18:33N 56°15' E 012°10'2210.5
2016-Jul-19 16:31N 56°35' E 011°56'1010.8
2016-Jul-19 15:33N 56°45' E 011°52'1110.8
2016-Jul-19 14:33N 56°56' E 011°46'1110.8
2016-Jul-19 13:32N 57°06' E 011°39'1010.4
2016-Jul-19 12:33N 57°16' E 011°33'1110.6
2016-Jul-19 11:33N 57°25' E 011°26'1010.4
2016-Jul-19 10:33N 57°35' E 011°19'1110.4
2016-Jul-19 09:33N 57°45' E 011°13'  

Dump ship's entire track history